Terminal Aerodrome Forecast
Issued by NWS Indianapolis, IN

Home | Current Version | Previous Version | Text Only | Print | Product List | Glossary On
Versions: 1 2 3 4 5 6 7 8 9 10 11 12 13 14 15 16 17 18 19 20 21 22 23 24 25 26 27 28 29 30 31 32
453
FTUS43 KIND 022325
TAFIND
TAF
KIND 022325Z 0300/0406 30007KT P6SM OVC025
     FM030400 36008KT P6SM SCT007 OVC015
     FM031000 35006KT 5SM BR OVC009
     FM031500 34006KT P6SM BKN020
     FM032000 27007KT P6SM SCT020 BKN060
     FM040000 24006KT P6SM BKN060=

USA.gov is the U.S. government's official web portal to all federal, state and local government web resources and services.